首页
METAR-TAF:

METAR-TAF

机场 :

Stigler, 奧克拉荷馬州, 美国

纬度: 35-17-17N, 经度: 095-05-38W, 海拔: 183米

当前天气观测

该预报发布于28分钟前的06:55 UTC
风速3节,风向西北
温度 7°C
湿度 100%
气压 1019 hPa
能見度: 0.8公里
阴天层高于200英尺

METAR: KGZL 050655Z AUTO 31003KT 1/2SM FG OVC002 07/07 A3008 RMK AO2

时间: 02:23 (07:23 UTC)


TAF: 丢失

超过4000个机场的气象观测和天气预报(METAR&TAF报告)。

可查询的气象台以黄色和红色小点在地图上表示。

将鼠标移到小点上方,可查看气象台名称。

然后点击查看天气观测和预报。

如需切换地图:点击带黑十字的绿色按钮放大地图;点击带横线的绿色按钮缩小地图;或者点击绿色箭头查看邻近地区的地图。


METAR-TAF: